Terminal Aerodrome Forecast
Issued by NWS

Current Version | Previous Version | Graphics & Text | Print | Product List | Glossary On
Versions: 1 2 3 4 5 6 7 8 9 10 11 12 13 14 15 16 17 18 19 20 21 22
000
FTUS41 KPBZ 160522
TAFHLG
TAF
KHLG 160522Z 1606/1706 09005KT P6SM BKN200
     FM161200 10005KT P6SM BKN080
     FM161900 15005KT P6SM OVC025
     FM162200 12005KT P6SM OVC010=

USA.gov is the U.S. government's official web portal to all federal, state and local government web resources and services.